createdAt,value
2018-11-02T00:00:39.221Z,10.80
2018-11-02T00:05:48.768Z,10.80
2018-11-02T00:10:58.389Z,10.80
2018-11-02T00:16:08.170Z,10.90
2018-11-02T00:21:14.421Z,10.90
2018-11-02T00:26:24.053Z,10.90
2018-11-02T00:31:27.911Z,10.90
2018-11-02T00:36:37.522Z,10.90
2018-11-02T00:41:47.072Z,10.90
2018-11-02T00:46:55.339Z,10.90
2018-11-02T00:52:05.329Z,10.90
2018-11-02T00:57:14.853Z,10.90
2018-11-02T01:02:24.330Z,11.00
2018-11-02T01:07:33.987Z,10.90
2018-11-02T01:12:43.640Z,10.90
2018-11-02T01:17:53.125Z,10.80
2018-11-02T01:23:02.827Z,10.80
2018-11-02T01:28:12.358Z,10.90
2018-11-02T01:33:23.864Z,10.80
2018-11-02T01:38:33.929Z,10.90
2018-11-02T01:43:43.543Z,10.90
2018-11-02T01:48:53.186Z,10.90
2018-11-02T01:54:02.870Z,10.90
2018-11-02T01:59:12.531Z,10.90
2018-11-02T02:04:22.241Z,10.90
2018-11-02T02:09:32.002Z,10.90
2018-11-02T02:14:41.580Z,10.90
2018-11-02T02:19:51.122Z,10.90
2018-11-02T02:25:00.871Z,10.90
2018-11-02T02:30:13.054Z,10.90
2018-11-02T02:35:22.652Z,11.00
2018-11-02T02:40:32.172Z,11.00
2018-11-02T02:45:42.032Z,11.00
2018-11-02T02:50:51.525Z,11.00
2018-11-02T02:56:00.932Z,11.10
2018-11-02T03:01:10.339Z,11.10
2018-11-02T03:06:19.831Z,11.00
2018-11-02T03:11:29.473Z,11.00
2018-11-02T03:16:40.044Z,11.00
2018-11-02T03:21:49.747Z,11.00
2018-11-02T03:26:59.145Z,11.00
2018-11-02T03:32:08.791Z,10.90
2018-11-02T03:37:18.210Z,10.90
2018-11-02T03:42:27.964Z,10.80
2018-11-02T03:47:37.486Z,10.80
2018-11-02T03:52:47.030Z,10.90
2018-11-02T03:57:56.719Z,10.70
2018-11-02T04:08:16.804Z,10.30
2018-11-02T04:13:26.475Z,10.30
2018-11-02T04:18:36.240Z,10.40
2018-11-02T04:23:45.707Z,10.40
2018-11-02T04:28:56.297Z,10.40
2018-11-02T04:34:05.956Z,10.40
2018-11-02T04:39:15.694Z,10.20
2018-11-02T04:44:25.312Z,10.20
2018-11-02T04:49:34.725Z,10.10
2018-11-02T04:54:44.405Z,10.20
2018-11-02T04:59:54.002Z,9.90
2018-11-02T05:05:03.714Z,9.70
2018-11-02T05:10:13.164Z,11.30
2018-11-02T05:15:25.439Z,9.90
2018-11-02T05:20:34.930Z,9.90
2018-11-02T05:25:45.731Z,9.90
2018-11-02T05:30:56.698Z,10.00
2018-11-02T05:36:08.470Z,10.00
2018-11-02T05:41:21.416Z,9.80
2018-11-02T05:46:33.816Z,9.80
2018-11-02T05:51:44.552Z,10.00
2018-11-02T05:56:59.247Z,10.10
2018-11-02T06:02:06.786Z,9.90
2018-11-02T06:07:23.039Z,9.80
2018-11-02T06:12:37.381Z,10.00
2018-11-02T06:17:46.945Z,9.80
2018-11-02T06:23:04.624Z,9.90
2018-11-02T06:28:17.830Z,9.60
2018-11-02T06:33:31.443Z,9.70
2018-11-02T06:38:41.324Z,9.90
2018-11-02T06:43:51.215Z,9.70
2018-11-02T06:49:03.009Z,9.70
2018-11-02T06:54:13.997Z,9.70
2018-11-02T06:59:26.125Z,9.90
2018-11-02T07:04:39.296Z,10.00
2018-11-02T07:09:51.658Z,9.80
2018-11-02T07:15:02.179Z,9.80
2018-11-02T07:20:11.626Z,9.90
2018-11-02T07:25:23.092Z,9.90
2018-11-02T07:30:43.698Z,9.90
2018-11-02T07:35:58.304Z,9.80
2018-11-02T07:41:10.579Z,10.00
2018-11-02T07:46:21.866Z,10.20
2018-11-02T07:51:34.562Z,10.00
2018-11-02T07:56:47.364Z,10.10
2018-11-02T08:01:58.135Z,9.60
2018-11-02T08:07:07.825Z,9.70
2018-11-02T08:12:17.621Z,10.00
2018-11-02T08:17:27.258Z,9.90
2018-11-02T08:22:36.807Z,9.80
2018-11-02T08:27:46.445Z,10.00
2018-11-02T08:32:56.478Z,10.30
2018-11-02T08:38:06.263Z,10.20
2018-11-02T08:43:15.757Z,10.40
2018-11-02T08:48:25.386Z,10.50
2018-11-02T08:53:35.052Z,10.50
2018-11-02T08:58:44.813Z,10.60
2018-11-02T09:03:54.338Z,11.70
2018-11-02T09:09:04.713Z,12.60
2018-11-02T09:14:14.257Z,13.90
2018-11-02T09:19:24.443Z,13.80
2018-11-02T09:24:33.998Z,12.70
2018-11-02T09:29:43.426Z,12.80
2018-11-02T09:34:53.277Z,13.30
2018-11-02T09:40:03.111Z,14.00
2018-11-02T09:45:13.812Z,16.20
2018-11-02T09:50:23.410Z,17.50
2018-11-02T09:55:33.043Z,17.00
2018-11-02T10:00:42.681Z,15.10
2018-11-02T10:05:52.509Z,10.80
2018-11-02T10:11:02.108Z,14.40
2018-11-02T10:16:11.976Z,14.50
2018-11-02T10:21:22.457Z,14.90
2018-11-02T10:26:32.138Z,15.00
2018-11-02T10:31:42.434Z,14.80
2018-11-02T10:36:52.086Z,16.00
2018-11-02T10:42:03.119Z,16.90
2018-11-02T10:47:13.331Z,18.00
2018-11-02T10:52:23.079Z,18.60
2018-11-02T10:57:32.581Z,17.90
2018-11-02T11:02:42.334Z,18.10
2018-11-02T11:07:51.900Z,18.20
2018-11-02T11:13:02.259Z,17.40
2018-11-02T11:18:11.809Z,17.50
2018-11-02T11:23:21.764Z,17.50
2018-11-02T11:28:33.428Z,16.80
2018-11-02T11:33:43.539Z,17.50
2018-11-02T11:38:53.726Z,17.20
2018-11-02T11:44:03.970Z,16.20
2018-11-02T11:49:13.684Z,16.50
2018-11-02T11:54:23.481Z,17.00
2018-11-02T11:59:33.484Z,16.70
2018-11-02T12:04:45.098Z,15.80
2018-11-02T12:09:54.996Z,15.10
2018-11-02T12:15:05.105Z,15.20
2018-11-02T12:20:19.980Z,14.70
2018-11-02T12:25:29.982Z,16.90
2018-11-02T12:30:39.755Z,17.40
2018-11-02T12:35:50.200Z,17.90
2018-11-02T12:41:00.422Z,18.20
2018-11-02T12:46:10.320Z,18.90
2018-11-02T12:51:20.441Z,18.80
2018-11-02T12:56:30.690Z,18.90
2018-11-02T13:01:41.370Z,18.10
2018-11-02T13:06:50.948Z,18.30
2018-11-02T13:12:01.377Z,17.90
2018-11-02T13:17:14.217Z,17.40
2018-11-02T13:22:25.118Z,17.90
2018-11-02T13:27:34.850Z,17.80
2018-11-02T13:32:44.609Z,17.50
2018-11-02T13:37:54.823Z,17.00
2018-11-02T13:43:05.207Z,17.70
2018-11-02T13:48:14.857Z,17.70
2018-11-02T13:53:24.922Z,16.70
2018-11-02T13:58:34.878Z,16.60
2018-11-02T14:03:44.891Z,17.00
2018-11-02T14:08:54.820Z,16.30
2018-11-02T14:14:05.070Z,15.80
2018-11-02T14:19:15.189Z,15.90
2018-11-02T14:24:25.274Z,16.60
2018-11-02T14:29:35.839Z,17.00
2018-11-02T14:34:45.501Z,16.80
2018-11-02T14:39:56.075Z,16.80
2018-11-02T14:45:07.710Z,16.90
2018-11-02T14:50:17.776Z,14.80
2018-11-02T14:55:27.526Z,14.00
2018-11-02T15:00:37.073Z,13.70
2018-11-02T15:05:47.364Z,13.60
2018-11-02T15:10:57.707Z,13.10
2018-11-02T15:16:08.031Z,13.10
2018-11-02T15:21:17.915Z,13.00
2018-11-02T15:26:27.836Z,12.80
2018-11-02T15:31:37.797Z,12.80
2018-11-02T15:36:47.591Z,13.00
2018-11-02T15:41:57.303Z,13.10
2018-11-02T15:47:07.114Z,12.70
2018-11-02T15:52:17.036Z,12.60
2018-11-02T15:57:26.633Z,12.40
2018-11-02T16:02:36.305Z,12.20
2018-11-02T16:07:45.830Z,11.90
2018-11-02T16:12:56.046Z,11.90
2018-11-02T16:18:07.128Z,12.00
2018-11-02T16:23:18.949Z,11.90
2018-11-02T16:28:29.150Z,12.20
2018-11-02T16:33:39.451Z,12.10
2018-11-02T16:38:49.332Z,11.90
2018-11-02T16:44:00.589Z,11.70
2018-11-02T16:49:11.126Z,11.60
2018-11-02T16:54:20.971Z,11.70
2018-11-02T16:59:30.740Z,11.70
2018-11-02T17:04:40.352Z,11.50
2018-11-02T17:09:50.183Z,11.40
2018-11-02T17:15:00.006Z,11.40
2018-11-02T17:20:12.197Z,11.40
2018-11-02T17:25:21.690Z,11.20
2018-11-02T17:30:31.227Z,11.00
2018-11-02T17:35:40.926Z,11.00
2018-11-02T17:40:51.411Z,11.00
2018-11-02T17:46:01.366Z,10.60
2018-11-02T17:51:11.435Z,10.60
2018-11-02T17:56:21.464Z,10.60
2018-11-02T18:01:31.348Z,10.50
2018-11-02T18:06:41.280Z,10.60
2018-11-02T18:11:51.117Z,10.60
2018-11-02T18:17:01.039Z,10.40
2018-11-02T18:22:11.453Z,10.40
2018-11-02T18:27:21.099Z,10.20
2018-11-02T18:32:31.168Z,9.10
2018-11-02T18:37:41.075Z,8.80
2018-11-02T18:42:50.718Z,9.40
2018-11-02T18:48:00.465Z,9.70
2018-11-02T18:53:10.228Z,10.10
2018-11-02T18:58:20.613Z,10.50
2018-11-02T19:03:30.425Z,10.70
2018-11-02T19:08:39.989Z,10.80
2018-11-02T19:13:49.632Z,10.70
2018-11-02T19:18:59.062Z,10.60
2018-11-02T19:24:08.791Z,10.50
2018-11-02T19:29:23.986Z,10.50
2018-11-02T19:34:33.694Z,10.50
2018-11-02T19:39:43.334Z,10.30
2018-11-02T19:44:52.962Z,9.20
2018-11-02T19:49:57.205Z,7.80
2018-11-02T19:55:07.198Z,7.70
2018-11-02T20:00:17.262Z,6.90
2018-11-02T20:05:22.867Z,6.70
2018-11-02T20:10:32.811Z,7.00
2018-11-02T20:15:42.591Z,6.90
2018-11-02T20:20:52.512Z,6.50
2018-11-02T20:26:02.189Z,7.00
2018-11-02T20:31:11.892Z,6.60
2018-11-02T20:36:21.645Z,6.70
2018-11-02T20:41:31.292Z,7.20
2018-11-02T20:46:40.862Z,7.80
2018-11-02T20:51:50.379Z,7.10
2018-11-02T20:57:00.083Z,7.00
2018-11-02T21:07:28.187Z,6.90
2018-11-02T21:12:37.634Z,7.50
2018-11-02T21:17:47.482Z,7.60
2018-11-02T21:22:57.014Z,8.00
2018-11-02T21:28:06.682Z,7.10
2018-11-02T21:33:16.242Z,6.50
2018-11-02T21:38:25.899Z,6.20
2018-11-02T21:43:35.739Z,6.90
2018-11-02T21:48:45.142Z,6.60
2018-11-02T21:53:54.868Z,6.20
2018-11-02T21:59:04.314Z,6.30
2018-11-02T22:04:13.902Z,6.20
2018-11-02T22:09:23.611Z,6.10
2018-11-02T22:14:33.359Z,6.60
2018-11-02T22:19:43.916Z,5.80
2018-11-02T22:24:54.320Z,5.70
2018-11-02T22:30:04.515Z,5.80
2018-11-02T22:35:15.163Z,6.80
2018-11-02T22:40:24.909Z,6.10
2018-11-02T22:45:34.345Z,6.00
2018-11-02T22:50:43.999Z,6.20
2018-11-02T22:55:54.074Z,7.40
2018-11-02T23:01:09.179Z,8.10
2018-11-02T23:06:18.853Z,8.20
2018-11-02T23:11:28.380Z,7.40
2018-11-02T23:16:37.964Z,6.80
2018-11-02T23:21:48.578Z,7.00
2018-11-02T23:26:58.196Z,7.70
2018-11-02T23:32:07.925Z,7.50
2018-11-02T23:37:17.789Z,6.10
2018-11-02T23:47:37.621Z,5.10
2018-11-02T23:52:47.120Z,5.60
2018-11-02T23:57:56.713Z,5.70
